createdAt,value
2019-03-20T00:00:18.582Z,75.90
2019-03-20T00:02:47.122Z,75.40
2019-03-20T00:05:15.751Z,75.30
2019-03-20T00:07:44.329Z,75.10
2019-03-20T00:10:13.008Z,75.70
2019-03-20T00:12:41.504Z,75.80
2019-03-20T00:15:12.501Z,75.40
2019-03-20T00:17:41.242Z,74.20
2019-03-20T00:20:11.685Z,73.80
2019-03-20T00:22:42.856Z,74.80
2019-03-20T00:25:11.525Z,75.20
2019-03-20T00:27:40.169Z,75.10
2019-03-20T00:30:21.203Z,74.30
2019-03-20T00:32:49.873Z,73.90
2019-03-20T00:35:18.488Z,74.40
2019-03-20T00:37:47.182Z,75.20
2019-03-20T00:40:19.097Z,76.30
2019-03-20T00:42:47.981Z,76.30
2019-03-20T00:45:18.626Z,75.90
2019-03-20T00:47:47.247Z,75.60
2019-03-20T00:50:17.973Z,75.50
2019-03-20T00:52:46.882Z,75.70
2019-03-20T00:55:17.447Z,75.10
2019-03-20T00:58:05.434Z,75.30
2019-03-20T01:00:34.146Z,75.10
2019-03-20T01:03:02.771Z,75.00
2019-03-20T01:05:31.466Z,75.20
2019-03-20T01:08:00.181Z,75.70
2019-03-20T01:10:28.777Z,75.30
2019-03-20T01:12:57.369Z,75.70
2019-03-20T01:15:26.132Z,75.80
2019-03-20T01:17:54.739Z,75.20
2019-03-20T01:20:24.422Z,75.10
2019-03-20T01:22:53.180Z,75.90
2019-03-20T01:25:21.803Z,76.30
2019-03-20T01:27:50.474Z,76.30
2019-03-20T01:30:36.553Z,77.40
2019-03-20T01:33:07.000Z,77.50
2019-03-20T01:35:35.931Z,77.20
2019-03-20T01:38:05.196Z,77.60
2019-03-20T01:40:34.179Z,77.90
2019-03-20T01:43:02.791Z,77.20
2019-03-20T01:45:31.486Z,77.40
2019-03-20T01:48:00.028Z,77.10
2019-03-20T01:50:28.734Z,77.50
2019-03-20T01:52:57.344Z,77.30
2019-03-20T01:55:25.962Z,77.50
2019-03-20T01:57:54.649Z,77.70
2019-03-20T02:00:23.298Z,77.40
2019-03-20T02:02:51.982Z,77.40
2019-03-20T02:05:20.538Z,78.00
2019-03-20T02:07:49.285Z,77.40
2019-03-20T02:10:18.637Z,77.90
2019-03-20T02:12:47.370Z,78.70
2019-03-20T02:15:20.307Z,79.30
2019-03-20T02:17:48.878Z,80.30
2019-03-20T02:20:18.623Z,80.50
2019-03-20T02:22:47.358Z,80.30
2019-03-20T02:25:16.637Z,80.30
2019-03-20T02:27:45.266Z,80.30
2019-03-20T02:30:18.196Z,80.30
2019-03-20T02:32:46.891Z,80.30
2019-03-20T02:35:15.598Z,81.10
2019-03-20T02:37:44.283Z,81.00
2019-03-20T02:40:14.972Z,80.40
2019-03-20T02:42:43.709Z,80.60
2019-03-20T02:45:16.289Z,80.50
2019-03-20T02:47:45.149Z,80.20
2019-03-20T02:50:15.382Z,80.30
2019-03-20T02:52:44.009Z,80.30
2019-03-20T02:55:12.987Z,80.20
2019-03-20T02:57:41.594Z,80.80
2019-03-20T03:00:21.052Z,80.30
2019-03-20T03:02:49.611Z,80.40
2019-03-20T03:05:19.137Z,80.30
2019-03-20T03:07:47.853Z,80.20
2019-03-20T03:10:18.059Z,80.50
2019-03-20T03:12:46.666Z,81.00
2019-03-20T03:15:16.083Z,81.10
2019-03-20T03:17:44.886Z,81.10
2019-03-20T03:20:14.903Z,81.30
2019-03-20T03:22:43.668Z,81.10
2019-03-20T03:25:13.958Z,81.40
2019-03-20T03:27:42.797Z,81.60
2019-03-20T03:30:18.449Z,81.60
2019-03-20T03:32:47.179Z,81.50
2019-03-20T03:35:18.529Z,81.70
2019-03-20T03:37:46.098Z,81.50
2019-03-20T03:40:19.639Z,81.80
2019-03-20T03:42:48.350Z,82.30
2019-03-20T03:45:17.498Z,82.40
2019-03-20T03:47:46.191Z,82.50
2019-03-20T03:50:15.521Z,82.80
2019-03-20T03:52:44.179Z,83.10
2019-03-20T03:55:13.607Z,83.60
2019-03-20T03:57:42.522Z,84.30
2019-03-20T04:00:18.982Z,84.50
2019-03-20T04:02:47.636Z,84.70
2019-03-20T04:05:16.622Z,85.40
2019-03-20T04:07:45.309Z,85.80
2019-03-20T04:10:15.995Z,86.00
2019-03-20T04:12:44.677Z,86.00
2019-03-20T04:15:14.612Z,86.30
2019-03-20T04:17:43.257Z,86.70
2019-03-20T04:20:13.955Z,86.80
2019-03-20T04:22:42.554Z,87.40
2019-03-20T04:25:12.181Z,87.50
2019-03-20T04:27:40.775Z,87.40
2019-03-20T04:30:16.215Z,87.70
2019-03-20T04:32:45.063Z,87.50
2019-03-20T04:35:14.194Z,87.60
2019-03-20T04:37:42.749Z,87.50
2019-03-20T04:40:13.078Z,87.60
2019-03-20T04:42:41.670Z,87.60
2019-03-20T04:45:14.168Z,88.40
2019-03-20T04:47:42.790Z,88.30
2019-03-20T04:50:16.421Z,88.50
2019-03-20T04:52:45.075Z,88.40
2019-03-20T04:55:13.854Z,88.60
2019-03-20T04:57:42.509Z,88.80
2019-03-20T05:00:23.106Z,88.80
2019-03-20T05:02:51.770Z,88.90
2019-03-20T05:05:20.452Z,88.70
2019-03-20T05:07:49.150Z,88.80
2019-03-20T05:10:18.935Z,88.50
2019-03-20T05:12:47.623Z,88.40
2019-03-20T05:15:16.310Z,88.70
2019-03-20T05:17:45.037Z,89.00
2019-03-20T05:20:19.677Z,89.20
2019-03-20T05:22:48.233Z,89.30
2019-03-20T05:25:16.930Z,89.30
2019-03-20T05:27:45.562Z,89.00
2019-03-20T05:30:17.399Z,88.90
2019-03-20T05:32:46.049Z,88.90
2019-03-20T05:35:14.725Z,88.30
2019-03-20T05:37:43.246Z,88.60
2019-03-20T05:40:18.273Z,88.60
2019-03-20T05:42:47.066Z,89.10
2019-03-20T05:45:21.642Z,88.60
2019-03-20T05:47:50.243Z,88.80
2019-03-20T05:50:19.007Z,88.70
2019-03-20T05:52:47.539Z,89.50
2019-03-20T05:55:19.093Z,88.70
2019-03-20T05:57:47.618Z,88.10
2019-03-20T06:00:19.571Z,88.10
2019-03-20T06:02:48.227Z,87.90
2019-03-20T06:05:16.832Z,88.20
2019-03-20T06:07:45.517Z,88.30
2019-03-20T06:10:18.810Z,87.90
2019-03-20T06:12:47.326Z,87.60
2019-03-20T06:15:16.028Z,87.20
2019-03-20T06:17:46.773Z,87.10
2019-03-20T06:20:15.530Z,86.60
2019-03-20T06:22:44.289Z,86.20
2019-03-20T06:25:14.331Z,85.90
2019-03-20T06:27:43.053Z,86.40
2019-03-20T06:30:20.720Z,85.70
2019-03-20T06:32:49.274Z,85.20
2019-03-20T06:35:17.848Z,84.80
2019-03-20T06:37:48.810Z,83.90
2019-03-20T06:40:18.006Z,83.40
2019-03-20T06:42:46.797Z,83.30
2019-03-20T06:45:19.250Z,82.70
2019-03-20T06:47:47.996Z,81.80
2019-03-20T06:50:20.837Z,81.50
2019-03-20T06:52:49.577Z,80.80
2019-03-20T06:55:18.237Z,81.40
2019-03-20T06:57:46.963Z,81.80
2019-03-20T07:00:36.943Z,81.80
2019-03-20T07:03:11.645Z,81.50
2019-03-20T07:06:08.965Z,81.20
2019-03-20T07:08:46.367Z,80.30
2019-03-20T07:11:14.519Z,79.90
2019-03-20T07:13:43.134Z,79.50
2019-03-20T07:16:11.942Z,78.70
2019-03-20T07:18:40.534Z,78.50
2019-03-20T07:21:09.217Z,77.50
2019-03-20T07:23:37.823Z,77.50
2019-03-20T07:26:06.377Z,78.00
2019-03-20T07:28:34.994Z,78.20
2019-03-20T07:31:14.327Z,77.70
2019-03-20T07:33:33.930Z,76.90
2019-03-20T07:36:02.584Z,77.40
2019-03-20T07:38:31.250Z,76.80
2019-03-20T07:40:59.897Z,76.40
2019-03-20T07:43:28.443Z,75.60
2019-03-20T07:45:57.151Z,75.40
2019-03-20T07:48:25.828Z,74.50
2019-03-20T07:50:54.437Z,72.40
2019-03-20T07:53:23.061Z,71.20
2019-03-20T07:55:51.625Z,71.40
2019-03-20T07:58:20.327Z,71.20
2019-03-20T08:00:49.001Z,70.10
2019-03-20T08:03:17.668Z,69.70
2019-03-20T08:05:46.269Z,69.20
2019-03-20T08:08:14.842Z,68.10
2019-03-20T08:10:43.477Z,67.60
2019-03-20T08:13:12.182Z,59.30
2019-03-20T08:15:40.794Z,59.80
2019-03-20T08:18:09.457Z,58.40
2019-03-20T08:20:38.164Z,56.30
2019-03-20T08:23:06.696Z,55.30
2019-03-20T08:25:35.720Z,52.70
2019-03-20T08:28:04.409Z,51.40
2019-03-20T08:30:33.066Z,51.70
2019-03-20T08:33:01.722Z,49.80
2019-03-20T08:35:30.359Z,47.40
2019-03-20T08:37:59.044Z,47.20
2019-03-20T08:40:27.671Z,46.50
2019-03-20T08:42:56.279Z,46.70
2019-03-20T08:45:24.854Z,46.10
2019-03-20T08:47:53.526Z,45.40
2019-03-20T08:50:26.235Z,44.60
2019-03-20T08:52:55.022Z,44.60
2019-03-20T08:55:23.714Z,41.70
2019-03-20T08:57:52.297Z,42.60
2019-03-20T09:00:22.347Z,42.50
2019-03-20T09:02:51.022Z,43.30
2019-03-20T09:05:19.907Z,43.80
2019-03-20T09:07:48.584Z,41.80
2019-03-20T09:10:27.270Z,40.00
2019-03-20T09:12:55.902Z,37.80
2019-03-20T09:15:24.569Z,38.70
2019-03-20T09:17:53.194Z,37.30
2019-03-20T09:20:22.794Z,36.30
2019-03-20T09:22:51.359Z,35.10
2019-03-20T09:25:27.157Z,36.10
2019-03-20T09:27:55.858Z,38.20
2019-03-20T09:30:25.342Z,41.30
2019-03-20T09:32:54.067Z,40.00
2019-03-20T09:35:22.680Z,37.10
2019-03-20T09:37:52.640Z,34.10
2019-03-20T09:40:28.367Z,32.40
2019-03-20T09:42:57.071Z,30.90
2019-03-20T09:45:25.757Z,32.10
2019-03-20T09:47:54.409Z,34.10
2019-03-20T09:50:29.528Z,32.80
2019-03-20T09:52:58.178Z,33.50
2019-03-20T09:55:26.717Z,35.30
2019-03-20T09:57:55.351Z,33.60
2019-03-20T10:00:26.174Z,32.40
2019-03-20T10:02:54.859Z,32.30
2019-03-20T10:05:23.585Z,30.30
2019-03-20T10:07:52.465Z,34.60
2019-03-20T10:10:22.933Z,36.10
2019-03-20T10:12:51.626Z,37.10
2019-03-20T10:15:28.109Z,35.30
2019-03-20T10:17:56.718Z,32.20
2019-03-20T10:20:25.457Z,35.80
2019-03-20T10:22:53.964Z,40.00
2019-03-20T10:25:22.666Z,38.60
2019-03-20T10:27:52.094Z,34.90
2019-03-20T10:30:25.879Z,33.00
2019-03-20T10:32:54.520Z,31.30
2019-03-20T10:35:23.294Z,30.00
2019-03-20T10:37:51.937Z,31.90
2019-03-20T10:40:24.197Z,31.60
2019-03-20T10:42:52.762Z,29.40
2019-03-20T10:45:21.536Z,30.30
2019-03-20T10:47:52.928Z,30.70
2019-03-20T10:50:22.847Z,30.20
2019-03-20T10:52:51.634Z,30.20
2019-03-20T10:55:20.240Z,30.10
2019-03-20T10:57:48.936Z,29.30
2019-03-20T11:00:22.522Z,29.70
2019-03-20T11:02:51.296Z,29.30
2019-03-20T11:05:20.343Z,28.90
2019-03-20T11:07:49.073Z,30.20
2019-03-20T11:10:25.396Z,30.30
2019-03-20T11:12:54.298Z,32.00
2019-03-20T11:15:23.719Z,30.40
2019-03-20T11:17:52.403Z,29.30
2019-03-20T11:20:23.219Z,30.50
2019-03-20T11:22:51.913Z,28.20
2019-03-20T11:25:24.704Z,26.80
2019-03-20T11:27:53.308Z,27.90
2019-03-20T11:30:29.645Z,28.60
2019-03-20T11:32:58.374Z,28.40
2019-03-20T11:35:27.083Z,26.40
2019-03-20T11:37:55.776Z,27.60
2019-03-20T11:40:40.905Z,27.40
2019-03-20T11:43:09.768Z,28.80
2019-03-20T11:45:38.364Z,30.70
2019-03-20T11:48:06.962Z,34.50
2019-03-20T11:50:39.191Z,35.90
2019-03-20T11:53:14.044Z,36.20
2019-03-20T11:55:42.734Z,37.50
2019-03-20T11:58:11.301Z,37.30
2019-03-20T12:00:40.077Z,38.60
2019-03-20T12:03:08.611Z,38.40
2019-03-20T12:05:37.238Z,34.20
2019-03-20T12:08:05.910Z,31.40
2019-03-20T12:10:34.699Z,30.10
2019-03-20T12:13:03.331Z,30.00
2019-03-20T12:15:32.177Z,30.50
2019-03-20T12:18:00.893Z,30.10
2019-03-20T12:20:29.505Z,28.60
2019-03-20T12:22:58.167Z,29.30
2019-03-20T12:25:31.581Z,29.80
2019-03-20T12:28:00.383Z,29.00
2019-03-20T12:30:35.033Z,29.60
2019-03-20T12:33:04.129Z,27.10
2019-03-20T12:35:47.616Z,27.10
2019-03-20T12:38:16.328Z,27.20
2019-03-20T12:40:44.871Z,29.90
2019-03-20T12:43:13.632Z,31.90
2019-03-20T12:45:42.325Z,31.10
2019-03-20T12:48:15.621Z,32.70
2019-03-20T12:50:48.023Z,35.20
2019-03-20T12:53:19.731Z,35.90
2019-03-20T12:55:48.443Z,34.50
2019-03-20T12:58:17.054Z,32.30
2019-03-20T13:05:41.813Z,31.60
2019-03-20T13:08:10.371Z,30.30
2019-03-20T13:10:39.008Z,28.80
2019-03-20T13:13:07.679Z,26.80
2019-03-20T13:15:36.313Z,28.60
2019-03-20T13:18:05.086Z,29.10
2019-03-20T13:20:33.740Z,30.20
2019-03-20T13:23:23.744Z,29.60
2019-03-20T13:25:52.446Z,31.10
2019-03-20T13:28:21.146Z,31.40
2019-03-20T13:30:55.618Z,31.50
2019-03-20T13:33:25.966Z,31.60
2019-03-20T13:36:00.255Z,30.20
2019-03-20T13:38:28.919Z,31.20
2019-03-20T13:40:57.556Z,32.20
2019-03-20T13:43:26.612Z,32.90
2019-03-20T13:45:55.299Z,35.50
2019-03-20T13:48:24.010Z,35.60
2019-03-20T13:50:52.805Z,34.90
2019-03-20T13:53:21.361Z,34.80
2019-03-20T13:55:49.905Z,34.80
2019-03-20T13:58:18.556Z,37.30
2019-03-20T14:00:47.101Z,38.60
2019-03-20T14:03:15.689Z,42.50
2019-03-20T14:05:44.303Z,43.70
2019-03-20T14:08:12.956Z,39.20
2019-03-20T14:10:50.284Z,40.20
2019-03-20T14:13:11.882Z,40.50
2019-03-20T14:15:40.470Z,40.30
2019-03-20T14:18:09.185Z,41.50
2019-03-20T14:20:37.723Z,41.80
2019-03-20T14:23:06.386Z,42.50
2019-03-20T14:25:34.990Z,42.50
2019-03-20T14:28:03.602Z,42.50
2019-03-20T14:30:33.236Z,43.00
2019-03-20T14:33:01.845Z,43.20
2019-03-20T14:35:30.560Z,43.90
2019-03-20T14:37:59.227Z,43.20
2019-03-20T14:40:36.999Z,43.00
2019-03-20T14:43:05.847Z,42.70
2019-03-20T14:45:34.447Z,43.10
2019-03-20T14:48:03.036Z,42.80
2019-03-20T14:50:32.754Z,43.00
2019-03-20T14:53:01.355Z,43.60
2019-03-20T14:55:30.059Z,43.80
2019-03-20T14:57:58.666Z,44.00
2019-03-20T15:00:33.134Z,43.80
2019-03-20T15:03:01.753Z,43.90
2019-03-20T15:05:30.295Z,44.60
2019-03-20T15:07:58.977Z,44.00
2019-03-20T15:10:28.445Z,43.20
2019-03-20T15:12:57.505Z,43.30
2019-03-20T15:15:41.508Z,43.80
2019-03-20T15:18:10.177Z,44.10
2019-03-20T15:20:39.018Z,43.60
2019-03-20T15:23:07.673Z,44.20
2019-03-20T15:25:36.370Z,44.30
2019-03-20T15:28:05.245Z,44.10
2019-03-20T15:30:33.805Z,44.00
2019-03-20T15:33:02.427Z,44.50
2019-03-20T15:35:31.056Z,45.20
2019-03-20T15:37:59.681Z,45.10
2019-03-20T15:40:29.686Z,45.20
2019-03-20T15:42:58.294Z,45.40
2019-03-20T15:45:26.915Z,45.10
2019-03-20T15:47:55.551Z,45.10
2019-03-20T15:50:28.551Z,45.80
2019-03-20T15:52:57.423Z,45.40
2019-03-20T15:55:33.365Z,45.60
2019-03-20T15:58:02.002Z,45.40
2019-03-20T16:00:30.874Z,45.70
2019-03-20T16:03:05.120Z,45.90
2019-03-20T16:05:33.679Z,45.90
2019-03-20T16:08:02.312Z,46.00
2019-03-20T16:10:30.988Z,46.20
2019-03-20T16:12:59.604Z,46.20
2019-03-20T16:15:28.577Z,46.40
2019-03-20T16:17:57.183Z,46.50
2019-03-20T16:20:25.791Z,46.60
2019-03-20T16:22:54.413Z,47.10
2019-03-20T16:25:24.157Z,45.90
2019-03-20T16:27:52.767Z,46.30
2019-03-20T16:30:23.532Z,46.20
2019-03-20T16:32:52.285Z,46.10
2019-03-20T16:35:20.866Z,46.60
2019-03-20T16:37:49.510Z,47.10
2019-03-20T16:40:32.520Z,47.50
2019-03-20T16:43:01.225Z,47.50
2019-03-20T16:45:34.574Z,47.80
2019-03-20T16:48:03.341Z,48.10
2019-03-20T16:50:31.901Z,47.90
2019-03-20T16:53:00.537Z,48.20
2019-03-20T16:55:29.232Z,48.00
2019-03-20T16:57:57.902Z,48.50
2019-03-20T17:00:31.492Z,48.30
2019-03-20T17:03:00.479Z,48.40
2019-03-20T17:05:30.371Z,48.30
2019-03-20T17:07:58.981Z,48.30
2019-03-20T17:10:36.083Z,48.80
2019-03-20T17:13:05.773Z,49.10
2019-03-20T17:15:42.369Z,49.20
2019-03-20T17:18:11.082Z,48.90
2019-03-20T17:20:39.945Z,48.70
2019-03-20T17:23:08.614Z,48.70
2019-03-20T17:25:37.316Z,49.00
2019-03-20T17:28:06.802Z,48.70
2019-03-20T17:30:40.539Z,48.80
2019-03-20T17:33:09.689Z,48.80
2019-03-20T17:35:38.442Z,49.10
2019-03-20T17:38:09.994Z,49.50
2019-03-20T17:40:38.558Z,49.60
2019-03-20T17:43:07.433Z,49.30
2019-03-20T17:45:36.414Z,49.30
2019-03-20T17:48:05.622Z,49.70
2019-03-20T17:50:35.222Z,49.40
2019-03-20T17:53:05.055Z,50.20
2019-03-20T17:55:33.725Z,49.90
2019-03-20T17:58:02.522Z,50.00
2019-03-20T18:00:42.114Z,50.30
2019-03-20T18:03:10.700Z,50.40
2019-03-20T18:05:39.405Z,50.40
2019-03-20T18:08:08.781Z,50.80
2019-03-20T18:10:37.487Z,51.10
2019-03-20T18:13:07.296Z,50.60
2019-03-20T18:15:36.304Z,50.90
2019-03-20T18:18:05.981Z,51.00
2019-03-20T18:20:34.702Z,51.80
2019-03-20T18:23:05.868Z,51.40
2019-03-20T18:25:34.574Z,51.90
2019-03-20T18:28:03.262Z,52.40
2019-03-20T18:30:36.926Z,52.20
2019-03-20T18:33:18.029Z,52.50
2019-03-20T18:35:46.714Z,53.10
2019-03-20T18:38:15.345Z,52.70
2019-03-20T18:40:44.058Z,52.90
2019-03-20T18:43:12.758Z,53.10
2019-03-20T18:45:41.396Z,53.00
2019-03-20T18:48:09.948Z,53.10
2019-03-20T18:50:38.547Z,53.10
2019-03-20T18:53:07.246Z,53.60
2019-03-20T18:55:35.754Z,53.60
2019-03-20T18:58:04.560Z,53.30
2019-03-20T19:00:34.522Z,53.20
2019-03-20T19:03:24.429Z,52.40
2019-03-20T19:05:58.710Z,52.70
2019-03-20T19:08:44.867Z,52.70
2019-03-20T19:11:14.087Z,52.80
2019-03-20T19:13:42.646Z,53.00
2019-03-20T19:16:11.439Z,53.10
2019-03-20T19:18:40.136Z,53.60
2019-03-20T19:21:08.828Z,53.50
2019-03-20T19:23:37.363Z,53.70
2019-03-20T19:26:05.960Z,53.40
2019-03-20T19:28:34.712Z,53.80
2019-03-20T19:31:03.431Z,53.80
2019-03-20T19:33:32.581Z,53.50
2019-03-20T19:36:01.180Z,53.40
2019-03-20T19:38:34.878Z,53.60
2019-03-20T19:41:00.370Z,53.50
2019-03-20T19:43:37.216Z,53.60
2019-03-20T19:46:05.823Z,53.20
2019-03-20T19:48:34.484Z,53.30
2019-03-20T19:51:03.018Z,52.90
2019-03-20T19:53:31.733Z,52.90
2019-03-20T19:56:00.350Z,53.40
2019-03-20T19:58:29.071Z,53.10
2019-03-20T20:00:57.762Z,53.40
2019-03-20T20:03:26.318Z,53.30
2019-03-20T20:05:54.920Z,53.30
2019-03-20T20:08:23.610Z,53.60
2019-03-20T20:10:52.263Z,53.60
2019-03-20T20:13:20.789Z,53.90
2019-03-20T20:15:49.522Z,54.00
2019-03-20T20:18:18.124Z,54.30
2019-03-20T20:20:46.725Z,54.40
2019-03-20T20:23:15.260Z,54.00
2019-03-20T20:25:43.885Z,53.90
2019-03-20T20:28:12.358Z,53.50
2019-03-20T20:30:40.925Z,53.70
2019-03-20T20:33:09.477Z,53.70
2019-03-20T20:35:38.134Z,53.90
2019-03-20T20:38:06.810Z,54.30
2019-03-20T20:40:35.522Z,54.80
2019-03-20T20:43:13.245Z,55.00
2019-03-20T20:45:42.143Z,55.10
2019-03-20T20:48:11.750Z,54.90
2019-03-20T20:50:40.377Z,55.60
2019-03-20T20:53:09.178Z,55.10
2019-03-20T20:55:37.781Z,55.60
2019-03-20T20:58:06.334Z,55.40
2019-03-20T21:00:35.039Z,55.50
2019-03-20T21:03:03.641Z,55.80
2019-03-20T21:05:32.217Z,55.90
2019-03-20T21:08:00.819Z,56.30
2019-03-20T21:10:29.433Z,56.50
2019-03-20T21:12:58.068Z,56.70
2019-03-20T21:15:37.993Z,57.20
2019-03-20T21:18:15.158Z,56.30
2019-03-20T21:20:44.501Z,56.60
2019-03-20T21:23:32.679Z,56.00
2019-03-20T21:26:02.424Z,56.10
2019-03-20T21:28:53.387Z,56.40
2019-03-20T21:31:25.315Z,56.50
2019-03-20T21:34:18.030Z,57.00
2019-03-20T21:36:49.673Z,56.90
2019-03-20T21:39:18.277Z,57.10
2019-03-20T21:42:04.346Z,57.20
2019-03-20T21:45:09.176Z,57.00
2019-03-20T21:47:37.166Z,57.20
2019-03-20T21:50:20.608Z,57.50
2019-03-20T21:52:49.182Z,58.10
2019-03-20T21:55:23.341Z,58.20
2019-03-20T21:58:00.933Z,58.50
2019-03-20T22:00:44.486Z,58.60
2019-03-20T22:03:13.302Z,58.80
2019-03-20T22:05:53.974Z,59.20
2019-03-20T22:08:22.585Z,59.90
2019-03-20T22:11:00.202Z,59.00
2019-03-20T22:13:41.430Z,59.50
2019-03-20T22:16:18.675Z,59.40
2019-03-20T22:19:09.629Z,59.60
2019-03-20T22:22:06.886Z,60.00
2019-03-20T22:24:44.694Z,60.20
2019-03-20T22:27:22.389Z,59.70
2019-03-20T22:29:50.951Z,60.20
2019-03-20T22:32:32.642Z,60.50
2019-03-20T22:35:10.157Z,60.60
2019-03-20T22:37:38.694Z,60.70
2019-03-20T22:40:19.065Z,61.10
2019-03-20T22:42:59.749Z,61.70
2019-03-20T22:46:04.904Z,61.20
2019-03-20T22:49:11.317Z,61.70
2019-03-20T22:51:49.038Z,62.10
2019-03-20T22:54:29.362Z,62.80
2019-03-20T22:57:01.003Z,63.30
2019-03-20T22:59:29.529Z,62.70
2019-03-20T23:02:16.258Z,63.50
2019-03-20T23:04:51.184Z,63.90
2019-03-20T23:07:19.752Z,64.20
2019-03-20T23:09:48.384Z,64.20
2019-03-20T23:12:18.059Z,63.30
2019-03-20T23:14:46.846Z,64.10
2019-03-20T23:17:15.518Z,63.70
2019-03-20T23:19:45.155Z,63.50
2019-03-20T23:22:13.845Z,63.90
2019-03-20T23:24:42.726Z,63.90
2019-03-20T23:27:14.667Z,64.10
2019-03-20T23:29:43.232Z,63.60
2019-03-20T23:32:11.833Z,63.70
2019-03-20T23:34:40.369Z,63.90
2019-03-20T23:37:08.824Z,63.80
2019-03-20T23:39:37.458Z,64.00
2019-03-20T23:42:06.329Z,63.60
2019-03-20T23:44:34.815Z,64.90
2019-03-20T23:47:03.439Z,63.80
2019-03-20T23:49:32.000Z,64.40
2019-03-20T23:52:00.490Z,64.10
2019-03-20T23:54:32.591Z,64.80
2019-03-20T23:57:01.306Z,64.80
2019-03-20T23:59:29.825Z,64.90
